Time;durP1;ratioP1;P1;durP2;ratioP2;P2;SDS_P1;SDS_P2;PMS_P1;PMS_P2;Temp;Humidity;BMP_temperature;BMP_pressure;BME280_temperature;BME280_humidity;BME280_pressure;Samples;Min_cycle;Max_cycle;Signal;HPM_P1;HPM_P2
2022/08/15 00:00:47;;;;;;;;;;;;;;;;;;5049445;28;20392;-79
2022/08/15 00:03:13;;;;;;;;;;;;;;;;;;5043878;28;19976;-79
2022/08/15 00:05:40;;;;;;;;;;;;;;;;;;5048704;28;20430;-80
2022/08/15 00:08:07;;;;;;;;;;;;;;;;;;5028157;28;19964;-78
2022/08/15 00:10:33;;;;;;;;;;;;;;;;;;5044059;28;19987;-79
2022/08/15 00:13:01;;;;;;;;;;;;;;;;;;5046619;28;19923;-78
2022/08/15 00:15:27;;;;;;;;;;;;;;;;;;5044499;28;19991;-78
2022/08/15 00:17:53;;;;;;;;;;;;;;;;;;5046088;28;19948;-79
2022/08/15 00:20:19;;;;;;;;;;;;;;;;;;5045821;28;19967;-78
2022/08/15 00:22:46;;;;;;;;;;;;;;;;;;5035446;28;20342;-81
2022/08/15 00:25:12;;;;;;;;;;;;;;;;;;5010950;28;19920;-78
2022/08/15 00:27:38;;;;;;;;;;;;;;;;;;5043805;28;19952;-79
2022/08/15 00:30:05;;;;;;;;;;;;;;;;;;5041970;28;19960;-79
2022/08/15 00:32:32;;;;;;;;;;;;;;;;;;5047095;28;20007;-79
2022/08/15 00:34:59;;;;;;;;;;;;;;;;;;5045547;28;19945;-78
2022/08/15 00:37:25;;;;;;;;;;;;;;;;;;5035594;28;20352;-79
2022/08/15 00:39:51;;;;;;;;;;;;;;;;;;5045146;28;19960;-78
2022/08/15 00:42:17;;;;;;;;;;;;;;;;;;5035792;28;19984;-77
2022/08/15 00:44:44;;;;;;;;;;;;;;;;;;5044608;28;19951;-78
2022/08/15 00:47:10;;;;;;;;;;;;;;;;;;5042295;28;20312;-79
2022/08/15 00:49:36;;;;;;;;;;;;;;;;;;5048402;28;19960;-79
2022/08/15 00:52:03;;;;;;;;;;;;;;;;;;5045726;28;20373;-77
2022/08/15 00:54:29;;;;;;;;;;;;;;;;;;5027406;28;20031;-82
2022/08/15 00:56:55;;;;;;;;;;;;;;;;;;5032674;28;20083;-80
2022/08/15 00:59:22;;;;;;;;;;;;;;;;;;5031316;28;19925;-82
2022/08/15 01:01:48;;;;;;;;;;;;;;;;;;5040046;28;19975;-78
2022/08/15 01:04:15;;;;;;;;;;;;;;;;;;5038553;28;19939;-79
2022/08/15 01:06:41;;;;;;;;;;;;;;;;;;5044228;28;20414;-80
2022/08/15 01:09:07;;;;;;;;;;;;;;;;;;5025041;28;20007;-80
2022/08/15 01:11:34;;;;;;;;;;;;;;;;;;5028138;28;19964;-81
2022/08/15 01:14:01;;;;;;;;;;;;;;;;;;5038998;28;19955;-80
2022/08/15 01:16:27;;;;;;;;;;;;;;;;;;5026267;28;19963;-80
2022/08/15 01:18:53;;;;;;;;;;;;;;;;;;5045501;28;19941;-81
2022/08/15 01:21:20;;;;;;;;;;;;;;;;;;5038284;28;19952;-80
2022/08/15 01:23:47;;;;;;;;;;;;;;;;;;5037380;28;19953;-80
2022/08/15 01:26:13;;;;;;;;;;;;;;;;;;5043128;28;19971;-79
2022/08/15 01:28:39;;;;;;;;;;;;;;;;;;5035062;28;19964;-78
2022/08/15 01:31:06;;;;;;;;;;;;;;;;;;5029515;28;20365;-80
2022/08/15 01:33:32;;;;;;;;;;;;;;;;;;5044430;28;19956;-78
2022/08/15 01:35:59;;;;;;;;;;;;;;;;;;5045929;28;20013;-78
2022/08/15 01:38:25;;;;;;;;;;;;;;;;;;5046732;28;19956;-78
2022/08/15 01:40:51;;;;;;;;;;;;;;;;;;5035945;28;20448;-79
2022/08/15 01:43:17;;;;;;;;;;;;;;;;;;5026104;28;19920;-78
2022/08/15 01:45:43;;;;;;;;;;;;;;;;;;5047501;28;19944;-79
2022/08/15 01:48:10;;;;;;;;;;;;;;;;;;5022970;28;19963;-79
2022/08/15 01:50:36;;;;;;;;;;;;;;;;;;5045864;28;19971;-81
2022/08/15 01:53:02;;;;;;;;;;;;;;;;;;5021830;28;20094;-81
2022/08/15 01:55:29;;;;;;;;;;;;;;;;;;5042758;28;19967;-81
2022/08/15 01:57:55;;;;;;;;;;;;;;;;;;5041616;28;19956;-81
2022/08/15 02:00:21;;;;;;;;;;;;;;;;;;5038866;28;20354;-81
2022/08/15 02:02:47;;;;;;;;;;;;;;;;;;5041993;28;19959;-79
2022/08/15 02:05:13;;;;;;;;;;;;;;;;;;5043622;28;19950;-78
2022/08/15 02:07:40;;;;;;;;;;;;;;;;;;5046349;28;20403;-80
2022/08/15 02:10:06;;;;;;;;;;;;;;;;;;5020032;28;19957;-78
2022/08/15 02:12:32;;;;;;;;;;;;;;;;;;5020356;28;19956;-79
2022/08/15 02:14:59;;;;;;;;;;;;;;;;;;5022745;28;19968;-78
2022/08/15 02:17:25;;;;;;;;;;;;;;;;;;5026515;28;20388;-78
2022/08/15 02:19:51;;;;;;;;;;;;;;;;;;5021288;28;19988;-77
2022/08/15 02:22:18;;;;;;;;;;;;;;;;;;5025278;28;19953;-78
2022/08/15 02:24:44;;;;;;;;;;;;;;;;;;5020147;28;19964;-79
2022/08/15 02:27:11;;;;;;;;;;;;;;;;;;5020864;28;19957;-79
2022/08/15 02:29:37;;;;;;;;;;;;;;;;;;5026783;28;19960;-79
2022/08/15 02:32:04;;;;;;;;;;;;;;;;;;5027614;28;19953;-79
2022/08/15 02:34:34;;;;;;;;;;;;;;;;;;5029559;28;19948;-79
2022/08/15 02:37:00;;;;;;;;;;;;;;;;;;5026205;28;19945;-79
2022/08/15 02:39:26;;;;;;;;;;;;;;;;;;5021356;28;20518;-79
2022/08/15 02:41:53;;;;;;;;;;;;;;;;;;5025782;28;19963;-80
2022/08/15 02:44:20;;;;;;;;;;;;;;;;;;5029412;28;19995;-80
2022/08/15 02:46:48;;;;;;;;;;;;;;;;;;5031364;28;19970;-79
2022/08/15 02:49:14;;;;;;;;;;;;;;;;;;5022516;28;19957;-79
2022/08/15 02:51:40;;;;;;;;;;;;;;;;;;5026806;28;19964;-79
2022/08/15 02:54:06;;;;;;;;;;;;;;;;;;5020461;28;19950;-79
2022/08/15 02:56:33;;;;;;;;;;;;;;;;;;5029641;28;20345;-79
2022/08/15 02:58:59;;;;;;;;;;;;;;;;;;5021623;28;19956;-78
2022/08/15 03:01:28;;;;;;;;;;;;;;;;;;5025417;28;20399;-79
2022/08/15 03:03:55;;;;;;;;;;;;;;;;;;5025381;28;20450;-80
2022/08/15 03:06:21;;;;;;;;;;;;;;;;;;5025602;28;19922;-79
2022/08/15 03:08:47;;;;;;;;;;;;;;;;;;5024382;28;19964;-81
2022/08/15 03:11:13;;;;;;;;;;;;;;;;;;5040228;28;19961;-80
2022/08/15 03:13:40;;;;;;;;;;;;;;;;;;5049600;28;20722;-79
2022/08/15 03:16:06;;;;;;;;;;;;;;;;;;5047026;28;19944;-79
2022/08/15 03:18:32;;;;;;;;;;;;;;;;;;5047466;28;19949;-79
2022/08/15 03:20:59;;;;;;;;;;;;;;;;;;5041819;28;19949;-79
2022/08/15 03:23:31;;;;;;;;;;;;;;;;;;5013479;28;20416;-80
2022/08/15 03:25:59;;;;;;;;;;;;;;;;;;5036654;28;20270;-80
2022/08/15 03:28:25;;;;;;;;;;;;;;;;;;5046673;28;20035;-81
2022/08/15 03:30:51;;;;;;;;;;;;;;;;;;5044675;28;20390;-81
2022/08/15 03:33:18;;;;;;;;;;;;;;;;;;5048244;28;19952;-81
2022/08/15 03:35:44;;;;;;;;;;;;;;;;;;5025798;28;19944;-81
2022/08/15 03:38:10;;;;;;;;;;;;;;;;;;5044792;28;20371;-80
2022/08/15 03:40:36;;;;;;;;;;;;;;;;;;5030092;28;19979;-80
2022/08/15 03:43:02;;;;;;;;;;;;;;;;;;5028360;28;20380;-79
2022/08/15 03:45:29;;;;;;;;;;;;;;;;;;5049245;28;19952;-79
2022/08/15 03:47:56;;;;;;;;;;;;;;;;;;5047585;28;19955;-77
2022/08/15 03:50:22;;;;;;;;;;;;;;;;;;5046207;28;20378;-78
2022/08/15 03:52:48;;;;;;;;;;;;;;;;;;5047898;28;19960;-79
2022/08/15 03:55:16;;;;;;;;;;;;;;;;;;5043136;28;19997;-80
2022/08/15 03:57:44;;;;;;;;;;;;;;;;;;5029678;28;19960;-81
2022/08/15 04:00:11;;;;;;;;;;;;;;;;;;5037390;28;19968;-79
2022/08/15 04:02:37;;;;;;;;;;;;;;;;;;5049338;28;19952;-88
2022/08/15 04:05:03;;;;;;;;;;;;;;;;;;5047652;28;19917;-88
2022/08/15 04:07:32;;;;;;;;;;;;;;;;;;5059320;28;19916;-90
2022/08/15 04:09:58;;;;;;;;;;;;;;;;;;5050499;28;19943;-91
2022/08/15 04:12:25;;;;;;;;;;;;;;;;;;5048613;28;19925;-88
2022/08/15 04:14:51;;;;;;;;;;;;;;;;;;5054732;28;20008;-88
2022/08/15 04:17:17;;;;;;;;;;;;;;;;;;5051123;28;19924;-90
2022/08/15 04:19:43;;;;;;;;;;;;;;;;;;5052706;28;19928;-88
2022/08/15 04:22:09;;;;;;;;;;;;;;;;;;5049211;28;19913;-91
2022/08/15 04:24:36;;;;;;;;;;;;;;;;;;5054695;28;19917;-90
2022/08/15 04:27:02;;;;;;;;;;;;;;;;;;5056885;28;19917;-90
2022/08/15 04:29:28;;;;;;;;;;;;;;;;;;5056312;28;19925;-91
2022/08/15 04:31:54;;;;;;;;;;;;;;;;;;5048462;28;20296;-88
2022/08/15 04:34:21;;;;;;;;;;;;;;;;;;5050421;28;19990;-90
2022/08/15 04:36:47;;;;;;;;;;;;;;;;;;5051380;28;19948;-87
2022/08/15 04:39:13;;;;;;;;;;;;;;;;;;5051833;28;19913;-91
2022/08/15 04:41:39;;;;;;;;;;;;;;;;;;5050789;28;20384;-87
2022/08/15 04:44:06;;;;;;;;;;;;;;;;;;5053662;28;19924;-90
2022/08/15 04:46:32;;;;;;;;;;;;;;;;;;5050990;28;19939;-90
2022/08/15 04:48:58;;;;;;;;;;;;;;;;;;5031861;28;19913;-89
2022/08/15 04:51:24;;;;;;;;;;;;;;;;;;5052600;28;19917;-90
2022/08/15 04:53:50;;;;;;;;;;;;;;;;;;5048403;28;20266;-83
2022/08/15 04:56:17;;;;;;;;;;;;;;;;;;5052508;28;19932;-88
2022/08/15 04:58:43;;;;;;;;;;;;;;;;;;5058734;28;19928;-87
2022/08/15 05:01:09;;;;;;;;;;;;;;;;;;5059663;28;19925;-88
2022/08/15 05:03:36;;;;;;;;;;;;;;;;;;5061482;28;19917;-89
2022/08/15 05:06:02;;;;;;;;;;;;;;;;;;5031827;28;19917;-88
2022/08/15 05:08:28;;;;;;;;;;;;;;;;;;5059818;28;20300;-90
2022/08/15 05:10:54;;;;;;;;;;;;;;;;;;5057380;28;19936;-91
2022/08/15 05:13:20;;;;;;;;;;;;;;;;;;5061166;28;19917;-90
2022/08/15 05:15:47;;;;;;;;;;;;;;;;;;5056267;28;19917;-87
2022/08/15 05:18:13;;;;;;;;;;;;;;;;;;5050272;28;19916;-88
2022/08/15 05:20:42;;;;;;;;;;;;;;;;;;5051172;28;19963;-88
2022/08/15 05:23:08;;;;;;;;;;;;;;;;;;5049900;28;19935;-87
2022/08/15 05:25:35;;;;;;;;;;;;;;;;;;5049653;28;19956;-86
2022/08/15 05:28:01;;;;;;;;;;;;;;;;;;5049602;28;19935;-85
2022/08/15 05:30:27;;;;;;;;;;;;;;;;;;5044072;28;19967;-86
2022/08/15 05:32:53;;;;;;;;;;;;;;;;;;5046524;28;19912;-86
2022/08/15 05:35:19;;;;;;;;;;;;;;;;;;5016197;28;19913;-87
2022/08/15 05:37:46;;;;;;;;;;;;;;;;;;5049897;28;20404;-86
2022/08/15 05:40:12;;;;;;;;;;;;;;;;;;5045604;28;19966;-87
2022/08/15 05:42:38;;;;;;;;;;;;;;;;;;5034378;28;19949;-89
2022/08/15 05:45:05;;;;;;;;;;;;;;;;;;5054217;28;19912;-88
2022/08/15 05:47:31;;;;;;;;;;;;;;;;;;5038220;28;19939;-90
2022/08/15 05:49:57;;;;;;;;;;;;;;;;;;5051454;28;19916;-86
2022/08/15 05:52:23;;;;;;;;;;;;;;;;;;5048605;28;19913;-88
2022/08/15 05:54:49;;;;;;;;;;;;;;;;;;5050302;28;19948;-89
2022/08/15 05:57:16;;;;;;;;;;;;;;;;;;5056425;28;19913;-89
2022/08/15 05:59:42;;;;;;;;;;;;;;;;;;5060828;28;20373;-91
2022/08/15 06:02:10;;;;;;;;;;;;;;;;;;5063464;28;19943;-90
2022/08/15 06:04:36;;;;;;;;;;;;;;;;;;5071698;28;19917;-89
2022/08/15 06:07:02;;;;;;;;;;;;;;;;;;5066558;28;19912;-89
2022/08/15 06:09:28;;;;;;;;;;;;;;;;;;5062134;28;19932;-90
2022/08/15 06:11:55;;;;;;;;;;;;;;;;;;5061389;28;19917;-89
2022/08/15 06:14:21;;;;;;;;;;;;;;;;;;5072140;28;19917;-90
2022/08/15 06:16:47;;;;;;;;;;;;;;;;;;5039372;28;20292;-87
2022/08/15 06:19:13;;;;;;;;;;;;;;;;;;5054910;28;19928;-90
2022/08/15 06:21:40;;;;;;;;;;;;;;;;;;5065449;28;19967;-88
2022/08/15 06:24:06;;;;;;;;;;;;;;;;;;5045603;28;19923;-90
2022/08/15 06:26:32;;;;;;;;;;;;;;;;;;5052656;28;19913;-89
2022/08/15 06:28:58;;;;;;;;;;;;;;;;;;5065248;28;20347;-88
2022/08/15 06:31:25;;;;;;;;;;;;;;;;;;5060624;28;19979;-87
2022/08/15 06:33:51;;;;;;;;;;;;;;;;;;5046625;28;19917;-89
2022/08/15 06:36:18;;;;;;;;;;;;;;;;;;5034811;28;19924;-88
2022/08/15 06:38:44;;;;;;;;;;;;;;;;;;5050033;28;19928;-87
2022/08/15 06:41:10;;;;;;;;;;;;;;;;;;5046374;28;19963;-89
2022/08/15 06:43:36;;;;;;;;;;;;;;;;;;5047011;28;20442;-88
2022/08/15 06:46:02;;;;;;;;;;;;;;;;;;5050783;28;19913;-87
2022/08/15 06:48:29;;;;;;;;;;;;;;;;;;5047612;28;20455;-87
2022/08/15 06:50:55;;;;;;;;;;;;;;;;;;5048258;28;19956;-88
2022/08/15 06:53:21;;;;;;;;;;;;;;;;;;5045947;28;19913;-87
2022/08/15 06:55:47;;;;;;;;;;;;;;;;;;5051479;28;20376;-87
2022/08/15 06:58:14;;;;;;;;;;;;;;;;;;5049564;28;20019;-88
2022/08/15 07:00:41;;;;;;;;;;;;;;;;;;5031345;28;19952;-88
2022/08/15 07:03:08;;;;;;;;;;;;;;;;;;5040292;28;19927;-87
2022/08/15 07:05:34;;;;;;;;;;;;;;;;;;5040778;28;19924;-88
2022/08/15 07:08:01;;;;;;;;;;;;;;;;;;5047352;28;19952;-87
2022/08/15 07:10:27;;;;;;;;;;;;;;;;;;5036540;28;19983;-88
2022/08/15 07:12:53;;;;;;;;;;;;;;;;;;5030123;28;19952;-87
2022/08/15 07:15:19;;;;;;;;;;;;;;;;;;5050709;28;19913;-87
2022/08/15 07:17:45;;;;;;;;;;;;;;;;;;5049324;28;19925;-88
2022/08/15 07:20:12;;;;;;;;;;;;;;;;;;5047244;28;19963;-87
2022/08/15 07:22:40;;;;;;;;;;;;;;;;;;5038123;28;20360;-87
2022/08/15 07:25:06;;;;;;;;;;;;;;;;;;5042242;28;19968;-86
2022/08/15 07:27:32;;;;;;;;;;;;;;;;;;5050913;28;19956;-89
2022/08/15 07:29:59;;;;;;;;;;;;;;;;;;5051935;28;19941;-89
2022/08/15 07:32:25;;;;;;;;;;;;;;;;;;5049533;28;19956;-87
2022/08/15 07:34:51;;;;;;;;;;;;;;;;;;5047912;28;19963;-87
2022/08/15 07:37:20;;;;;;;;;;;;;;;;;;5036111;28;20411;-87
2022/08/15 07:39:46;;;;;;;;;;;;;;;;;;5040901;28;20058;-87
2022/08/15 07:42:15;;;;;;;;;;;;;;;;;;5038961;28;19969;-86
2022/08/15 07:44:42;;;;;;;;;;;;;;;;;;5046946;28;19991;-88
2022/08/15 07:47:09;;;;;;;;;;;;;;;;;;5043536;28;19920;-84
2022/08/15 07:49:35;;;;;;;;;;;;;;;;;;5049974;28;19913;-89
2022/08/15 07:52:01;;;;;;;;;;;;;;;;;;5048657;28;19972;-90
2022/08/15 07:54:27;;;;;;;;;;;;;;;;;;5051752;28;19944;-90
2022/08/15 07:56:54;;;;;;;;;;;;;;;;;;5046500;28;19948;-90
2022/08/15 07:59:23;;;;;;;;;;;;;;;;;;5052896;28;20022;-89
2022/08/15 08:01:50;;;;;;;;;;;;;;;;;;5053789;28;19966;-91
2022/08/15 08:04:16;;;;;;;;;;;;;;;;;;5033063;28;19917;-89
2022/08/15 08:06:42;;;;;;;;;;;;;;;;;;5033385;28;19940;-88
2022/08/15 08:09:09;;;;;;;;;;;;;;;;;;5048694;28;19920;-88
2022/08/15 08:11:36;;;;;;;;;;;;;;;;;;5043482;28;19940;-86
2022/08/15 08:14:02;;;;;;;;;;;;;;;;;;5048667;28;20395;-88
2022/08/15 08:16:29;;;;;;;;;;;;;;;;;;5065738;28;19917;-87
2022/08/15 08:18:55;;;;;;;;;;;;;;;;;;5065448;28;19916;-87
2022/08/15 08:21:21;;;;;;;;;;;;;;;;;;5060355;28;19928;-89
2022/08/15 08:23:48;;;;;;;;;;;;;;;;;;5044081;28;19932;-89
2022/08/15 08:26:14;;;;;;;;;;;;;;;;;;5059445;28;20677;-89
2022/08/15 08:28:42;;;;;;;;;;;;;;;;;;5055270;28;19927;-89
2022/08/15 08:31:09;;;;;;;;;;;;;;;;;;5050150;28;19936;-89
2022/08/15 08:33:37;;;;;;;;;;;;;;;;;;5047946;28;19921;-90
2022/08/15 08:36:03;;;;;;;;;;;;;;;;;;5049540;28;20372;-90
2022/08/15 08:38:29;;;;;;;;;;;;;;;;;;5051732;28;19917;-90
2022/08/15 08:43:41;;;;;;;;;;;;;;;;;;5051209;28;19917;-90
2022/08/15 08:46:07;;;;;;;;;;;;;;;;;;5047248;28;19916;-91
2022/08/15 08:48:33;;;;;;;;;;;;;;;;;;5053871;28;19912;-90
2022/08/15 08:50:59;;;;;;;;;;;;;;;;;;5050212;28;19917;-90
2022/08/15 08:53:28;;;;;;;;;;;;;;;;;;5046606;28;20360;-81
2022/08/15 08:55:55;;;;;;;;;;;;;;;;;;5029686;28;20404;-89
2022/08/15 08:58:21;;;;;;;;;;;;;;;;;;5031109;28;19943;-89
2022/08/15 09:00:47;;;;;;;;;;;;;;;;;;5048082;28;19964;-90
2022/08/15 09:03:14;;;;;;;;;;;;;;;;;;5044866;28;19948;-89
2022/08/15 09:05:40;;;;;;;;;;;;;;;;;;5024883;28;20051;-90
2022/08/15 09:08:07;;;;;;;;;;;;;;;;;;5048149;28;20428;-90
2022/08/15 09:10:34;;;;;;;;;;;;;;;;;;5044126;28;19933;-90
2022/08/15 09:15:45;;;;;;;;;;;;;;;;;;5045859;28;19936;-89
2022/08/15 09:18:11;;;;;;;;;;;;;;;;;;5048574;28;19960;-88
2022/08/15 09:20:37;;;;;;;;;;;;;;;;;;5049058;28;20518;-88
2022/08/15 09:23:03;;;;;;;;;;;;;;;;;;5049748;28;19936;-89
2022/08/15 09:25:30;;;;;;;;;;;;;;;;;;5048723;28;19967;-90
2022/08/15 09:27:56;;;;;;;;;;;;;;;;;;5044941;28;19935;-90
2022/08/15 09:30:22;;;;;;;;;;;;;;;;;;5029875;28;19971;-90
2022/08/15 09:32:48;;;;;;;;;;;;;;;;;;5049256;28;19951;-88
2022/08/15 09:35:14;;;;;;;;;;;;;;;;;;5045847;28;19913;-90
2022/08/15 09:37:41;;;;;;;;;;;;;;;;;;5047530;28;19924;-89
2022/08/15 09:40:10;;;;;;;;;;;;;;;;;;5050995;28;19921;-89
2022/08/15 09:42:40;;;;;;;;;;;;;;;;;;5034125;28;19925;-89
2022/08/15 09:45:06;;;;;;;;;;;;;;;;;;5046628;28;19913;-89
2022/08/15 09:47:32;;;;;;;;;;;;;;;;;;5053203;28;19966;-88
2022/08/15 09:50:00;;;;;;;;;;;;;;;;;;5050081;28;19913;-89
2022/08/15 09:52:26;;;;;;;;;;;;;;;;;;5049877;28;19912;-88
2022/08/15 09:54:56;;;;;;;;;;;;;;;;;;5048925;28;19952;-87
2022/08/15 09:57:23;;;;;;;;;;;;;;;;;;5050457;28;19944;-90
2022/08/15 09:59:49;;;;;;;;;;;;;;;;;;5041474;28;19917;-88
2022/08/15 10:02:15;;;;;;;;;;;;;;;;;;5048046;28;19920;-89
2022/08/15 10:04:41;;;;;;;;;;;;;;;;;;5043456;28;19929;-88
2022/08/15 10:07:07;;;;;;;;;;;;;;;;;;5049089;28;19921;-89
2022/08/15 10:09:34;;;;;;;;;;;;;;;;;;5042229;28;19968;-88
2022/08/15 10:12:00;;;;;;;;;;;;;;;;;;5049375;28;19978;-88
2022/08/15 10:14:26;;;;;;;;;;;;;;;;;;5042625;28;19960;-89
2022/08/15 10:16:52;;;;;;;;;;;;;;;;;;5049757;28;19952;-89
2022/08/15 10:19:19;;;;;;;;;;;;;;;;;;5042257;28;19963;-87
2022/08/15 10:21:45;;;;;;;;;;;;;;;;;;5046003;28;19952;-89
2022/08/15 10:24:11;;;;;;;;;;;;;;;;;;5034662;28;20368;-89
2022/08/15 10:26:38;;;;;;;;;;;;;;;;;;5052619;28;19959;-89
2022/08/15 10:29:05;;;;;;;;;;;;;;;;;;5034611;28;20242;-88
2022/08/15 10:31:31;;;;;;;;;;;;;;;;;;5052594;28;19924;-91
2022/08/15 10:33:57;;;;;;;;;;;;;;;;;;5012193;28;19920;-88
2022/08/15 10:36:23;;;;;;;;;;;;;;;;;;5031932;28;20008;-88
2022/08/15 10:38:50;;;;;;;;;;;;;;;;;;5038989;28;19960;-88
2022/08/15 10:41:16;;;;;;;;;;;;;;;;;;5048238;28;20523;-90
2022/08/15 10:43:43;;;;;;;;;;;;;;;;;;5042393;28;19952;-89
2022/08/15 10:46:09;;;;;;;;;;;;;;;;;;5051995;28;20340;-89
2022/08/15 10:48:37;;;;;;;;;;;;;;;;;;5053087;28;19947;-88
2022/08/15 10:51:03;;;;;;;;;;;;;;;;;;5049506;28;19951;-87
2022/08/15 10:53:30;;;;;;;;;;;;;;;;;;5032265;28;19975;-88
2022/08/15 10:55:56;;;;;;;;;;;;;;;;;;5049852;28;19940;-88
2022/08/15 10:58:22;;;;;;;;;;;;;;;;;;5026412;28;19917;-86
2022/08/15 11:00:50;;;;;;;;;;;;;;;;;;5050236;28;20042;-86
2022/08/15 11:03:18;;;;;;;;;;;;;;;;;;5046721;28;22526;-90
2022/08/15 11:05:44;;;;;;;;;;;;;;;;;;5052687;28;19924;-88
2022/08/15 11:08:11;;;;;;;;;;;;;;;;;;5050298;28;20335;-88
2022/08/15 11:10:37;;;;;;;;;;;;;;;;;;5055930;28;20257;-88
2022/08/15 11:13:03;;;;;;;;;;;;;;;;;;5044257;28;19920;-88
2022/08/15 11:15:29;;;;;;;;;;;;;;;;;;5036926;28;19913;-87
2022/08/15 11:17:55;;;;;;;;;;;;;;;;;;5050000;28;19921;-87
2022/08/15 11:20:22;;;;;;;;;;;;;;;;;;5050061;28;19959;-86
2022/08/15 11:22:48;;;;;;;;;;;;;;;;;;5032851;28;19913;-86
2022/08/15 11:25:14;;;;;;;;;;;;;;;;;;5032862;28;19912;-87
2022/08/15 11:27:41;;;;;;;;;;;;;;;;;;5043140;28;19956;-87
2022/08/15 11:30:08;;;;;;;;;;;;;;;;;;5047488;28;19964;-87
2022/08/15 11:32:34;;;;;;;;;;;;;;;;;;5052676;28;19913;-86
2022/08/15 11:35:00;;;;;;;;;;;;;;;;;;5043997;28;19936;-87
2022/08/15 11:37:26;;;;;;;;;;;;;;;;;;5043924;28;19977;-89
2022/08/15 11:39:53;;;;;;;;;;;;;;;;;;5046117;28;19952;-89
2022/08/15 11:42:19;;;;;;;;;;;;;;;;;;5049297;28;19952;-87
2022/08/15 11:44:45;;;;;;;;;;;;;;;;;;5045318;28;19936;-88
2022/08/15 11:47:11;;;;;;;;;;;;;;;;;;5048043;28;20408;-87
2022/08/15 11:49:38;;;;;;;;;;;;;;;;;;5047983;28;19963;-88
2022/08/15 11:52:04;;;;;;;;;;;;;;;;;;5048697;28;19919;-89
2022/08/15 11:54:30;;;;;;;;;;;;;;;;;;5027592;28;19963;-89
2022/08/15 11:56:56;;;;;;;;;;;;;;;;;;5031874;28;19921;-87
2022/08/15 11:59:23;;;;;;;;;;;;;;;;;;5047279;28;19952;-88
2022/08/15 12:01:49;;;;;;;;;;;;;;;;;;5031717;28;20415;-87
2022/08/15 12:04:15;;;;;;;;;;;;;;;;;;5036590;28;19955;-87
2022/08/15 12:06:42;;;;;;;;;;;;;;;;;;5033237;28;19952;-87
2022/08/15 12:09:08;;;;;;;;;;;;;;;;;;5051905;28;19913;-87
2022/08/15 12:11:34;;;;;;;;;;;;;;;;;;5023031;28;19929;-87
2022/08/15 12:14:00;;;;;;;;;;;;;;;;;;5028601;28;19948;-88
2022/08/15 12:16:26;;;;;;;;;;;;;;;;;;5029118;28;20281;-87
2022/08/15 12:18:53;;;;;;;;;;;;;;;;;;5029335;28;19919;-88
2022/08/15 12:21:20;;;;;;;;;;;;;;;;;;5048470;28;19963;-88
2022/08/15 12:23:47;;;;;;;;;;;;;;;;;;5049359;28;19952;-88
2022/08/15 12:26:13;;;;;;;;;;;;;;;;;;5029543;28;19960;-88
2022/08/15 12:28:40;;;;;;;;;;;;;;;;;;5046795;28;20001;-89
2022/08/15 12:31:06;;;;;;;;;;;;;;;;;;5048378;28;20010;-88
2022/08/15 12:33:32;;;;;;;;;;;;;;;;;;5043704;28;19956;-88
2022/08/15 12:35:58;;;;;;;;;;;;;;;;;;5027487;28;19960;-87
2022/08/15 12:38:25;;;;;;;;;;;;;;;;;;5029191;28;19956;-87
2022/08/15 12:40:51;;;;;;;;;;;;;;;;;;5041553;28;19955;-88
2022/08/15 12:43:17;;;;;;;;;;;;;;;;;;5052899;28;19917;-86
2022/08/15 12:45:43;;;;;;;;;;;;;;;;;;5057386;28;19921;-86
2022/08/15 12:48:09;;;;;;;;;;;;;;;;;;5061346;28;19917;-86
2022/08/15 12:50:36;;;;;;;;;;;;;;;;;;5049029;28;19924;-90
2022/08/15 12:53:02;;;;;;;;;;;;;;;;;;5058824;28;19924;-89
2022/08/15 12:55:30;;;;;;;;;;;;;;;;;;5060281;28;19913;-90
2022/08/15 12:57:56;;;;;;;;;;;;;;;;;;5032813;28;19913;-87
2022/08/15 13:00:22;;;;;;;;;;;;;;;;;;5047198;28;19952;-87
2022/08/15 13:02:49;;;;;;;;;;;;;;;;;;5023797;28;19944;-86
2022/08/15 13:05:15;;;;;;;;;;;;;;;;;;5031505;28;19956;-87
2022/08/15 13:07:42;;;;;;;;;;;;;;;;;;5028028;28;19945;-86
2022/08/15 13:10:08;;;;;;;;;;;;;;;;;;5043711;28;19976;-86
2022/08/15 13:12:34;;;;;;;;;;;;;;;;;;5044302;28;19951;-89
2022/08/15 13:15:00;;;;;;;;;;;;;;;;;;5045299;28;19952;-86
2022/08/15 13:17:26;;;;;;;;;;;;;;;;;;5042191;28;20010;-80
2022/08/15 13:25:22;;;;;;;;;;;;;;;;;;5042952;28;19956;-81
2022/08/15 13:27:49;;;;;;;;;;;;;;;;;;5045480;28;19955;-83
2022/08/15 13:30:15;;;;;;;;;;;;;;;;;;5055834;28;19916;-86
2022/08/15 13:32:42;;;;;;;;;;;;;;;;;;5062257;28;19917;-82
2022/08/15 13:35:09;;;;;;;;;;;;;;;;;;5065175;28;19909;-83
2022/08/15 13:37:37;;;;;;;;;;;;;;;;;;5066480;28;19943;-82
2022/08/15 13:40:03;;;;;;;;;;;;;;;;;;5058482;28;19917;-83
2022/08/15 13:42:29;;;;;;;;;;;;;;;;;;5063791;28;19917;-80
2022/08/15 13:44:56;;;;;;;;;;;;;;;;;;5060094;28;19913;-82
2022/08/15 13:47:23;;;;;;;;;;;;;;;;;;5048095;28;20396;-82
2022/08/15 13:49:49;;;;;;;;;;;;;;;;;;5028016;28;19985;-83
2022/08/15 13:52:15;;;;;;;;;;;;;;;;;;5047229;28;19940;-83
2022/08/15 13:54:41;;;;;;;;;;;;;;;;;;5066511;28;19916;-82
2022/08/15 13:57:08;;;;;;;;;;;;;;;;;;5058662;28;20336;-84
2022/08/15 13:59:34;;;;;;;;;;;;;;;;;;5046122;28;19964;-83
2022/08/15 14:02:01;;;;;;;;;;;;;;;;;;5041963;28;21336;-83
2022/08/15 14:04:27;;;;;;;;;;;;;;;;;;5044927;28;19921;-84
2022/08/15 14:06:54;;;;;;;;;;;;;;;;;;5041388;28;19913;-82
2022/08/15 14:09:20;;;;;;;;;;;;;;;;;;5044552;28;19948;-82
2022/08/15 14:11:46;;;;;;;;;;;;;;;;;;5040847;28;19957;-81
2022/08/15 14:14:13;;;;;;;;;;;;;;;;;;5044334;28;19960;-81
2022/08/15 14:16:40;;;;;;;;;;;;;;;;;;5038294;28;20364;-81
2022/08/15 14:19:07;;;;;;;;;;;;;;;;;;5045168;28;19989;-81
2022/08/15 14:21:33;;;;;;;;;;;;;;;;;;5027036;28;20381;-77
2022/08/15 14:23:59;;;;;;;;;;;;;;;;;;5045235;28;19972;-74
2022/08/15 14:26:25;;;;;;;;;;;;;;;;;;5048837;28;19967;-75
2022/08/15 14:28:53;;;;;;;;;;;;;;;;;;5048460;28;19959;-75
2022/08/15 14:31:19;;;;;;;;;;;;;;;;;;5047314;28;21291;-76
2022/08/15 14:33:45;;;;;;;;;;;;;;;;;;5017045;28;19949;-75
2022/08/15 14:36:11;;;;;;;;;;;;;;;;;;5042710;28;19944;-76
2022/08/15 14:38:37;;;;;;;;;;;;;;;;;;5050850;28;20141;-75
2022/08/15 14:41:03;;;;;;;;;;;;;;;;;;5049942;28;19956;-75
2022/08/15 14:43:30;;;;;;;;;;;;;;;;;;5051367;28;19960;-75
2022/08/15 14:45:56;;;;;;;;;;;;;;;;;;5051169;28;19944;-75
2022/08/15 14:48:22;;;;;;;;;;;;;;;;;;5051050;28;19924;-76
2022/08/15 14:50:49;;;;;;;;;;;;;;;;;;5053383;28;19917;-76
2022/08/15 14:53:20;;;;;;;;;;;;;;;;;;5058419;28;20410;-78
2022/08/15 14:55:46;;;;;;;;;;;;;;;;;;5023264;28;19917;-76
2022/08/15 14:58:12;;;;;;;;;;;;;;;;;;5054037;28;19966;-76
2022/08/15 15:00:38;;;;;;;;;;;;;;;;;;5056816;28;19923;-75
2022/08/15 15:03:06;;;;;;;;;;;;;;;;;;5031413;28;19967;-76
2022/08/15 15:05:32;;;;;;;;;;;;;;;;;;5050989;28;19951;-76
2022/08/15 15:07:58;;;;;;;;;;;;;;;;;;5048399;28;19963;-78
2022/08/15 15:10:24;;;;;;;;;;;;;;;;;;5050602;28;19967;-76
2022/08/15 15:12:51;;;;;;;;;;;;;;;;;;5027958;28;19960;-76
2022/08/15 15:15:17;;;;;;;;;;;;;;;;;;5045603;28;19948;-75
2022/08/15 15:17:43;;;;;;;;;;;;;;;;;;5043050;28;19956;-76
2022/08/15 15:20:09;;;;;;;;;;;;;;;;;;5045854;28;20424;-76
2022/08/15 15:22:35;;;;;;;;;;;;;;;;;;5050137;28;20447;-74
2022/08/15 15:25:02;;;;;;;;;;;;;;;;;;5047456;28;19947;-74
2022/08/15 15:27:28;;;;;;;;;;;;;;;;;;5050033;28;19944;-75
2022/08/15 15:29:54;;;;;;;;;;;;;;;;;;5047521;28;19964;-76
2022/08/15 15:32:20;;;;;;;;;;;;;;;;;;5050193;28;19957;-76
2022/08/15 15:34:46;;;;;;;;;;;;;;;;;;5046519;28;19959;-76
2022/08/15 15:37:12;;;;;;;;;;;;;;;;;;5027433;28;20321;-77
2022/08/15 15:39:39;;;;;;;;;;;;;;;;;;5047778;28;19991;-74
2022/08/15 15:42:05;;;;;;;;;;;;;;;;;;5048720;28;19952;-75
2022/08/15 15:44:32;;;;;;;;;;;;;;;;;;5045132;28;19924;-76
2022/08/15 15:46:58;;;;;;;;;;;;;;;;;;5024377;28;19949;-77
2022/08/15 15:49:24;;;;;;;;;;;;;;;;;;5047092;28;19999;-75
2022/08/15 15:51:51;;;;;;;;;;;;;;;;;;5047667;28;20398;-75
2022/08/15 15:54:17;;;;;;;;;;;;;;;;;;5021507;28;19990;-75
2022/08/15 15:56:43;;;;;;;;;;;;;;;;;;5044292;28;19961;-74
2022/08/15 15:59:09;;;;;;;;;;;;;;;;;;5042134;28;19951;-75
2022/08/15 16:01:35;;;;;;;;;;;;;;;;;;5048454;28;19967;-76
2022/08/15 16:04:02;;;;;;;;;;;;;;;;;;5046674;28;19952;-75
2022/08/15 16:06:28;;;;;;;;;;;;;;;;;;5042619;28;19948;-75
2022/08/15 16:08:55;;;;;;;;;;;;;;;;;;5041770;28;19952;-76
2022/08/15 16:11:21;;;;;;;;;;;;;;;;;;5047874;28;20397;-76
2022/08/15 16:13:48;;;;;;;;;;;;;;;;;;5045828;28;19979;-75
2022/08/15 16:16:14;;;;;;;;;;;;;;;;;;5034928;28;19951;-76
2022/08/15 16:18:40;;;;;;;;;;;;;;;;;;5041794;28;19975;-76
2022/08/15 16:21:06;;;;;;;;;;;;;;;;;;5038013;28;19963;-75
2022/08/15 16:23:32;;;;;;;;;;;;;;;;;;5036778;28;20333;-76
2022/08/15 16:26:00;;;;;;;;;;;;;;;;;;5032408;28;19963;-75
2022/08/15 16:28:26;;;;;;;;;;;;;;;;;;5045591;28;19917;-75
2022/08/15 16:30:52;;;;;;;;;;;;;;;;;;5041427;28;19967;-75
2022/08/15 16:33:18;;;;;;;;;;;;;;;;;;5046513;28;20082;-76
2022/08/15 16:35:45;;;;;;;;;;;;;;;;;;5040501;28;19971;-75
2022/08/15 16:38:11;;;;;;;;;;;;;;;;;;5045647;28;20309;-76
2022/08/15 16:40:37;;;;;;;;;;;;;;;;;;5048003;28;19960;-76
2022/08/15 16:43:04;;;;;;;;;;;;;;;;;;5046075;28;19912;-74
2022/08/15 16:45:30;;;;;;;;;;;;;;;;;;5048007;28;19959;-74
2022/08/15 16:47:57;;;;;;;;;;;;;;;;;;5041847;28;20078;-75
2022/08/15 16:50:23;;;;;;;;;;;;;;;;;;5045513;28;19963;-74